createdAt,value
2019-02-17T00:00:49.053Z,87.05
2019-02-17T00:01:47.808Z,87.05
2019-02-17T00:02:46.332Z,86.86
2019-02-17T00:03:45.026Z,86.86
2019-02-17T00:04:43.766Z,86.86
2019-02-17T00:05:42.322Z,86.19
2019-02-17T00:06:40.902Z,86.38
2019-02-17T00:07:39.424Z,86.86
2019-02-17T00:08:37.988Z,86.19
2019-02-17T00:09:36.622Z,86.19
2019-02-17T00:10:35.324Z,86.1
2019-02-17T00:11:34.049Z,86.76
2019-02-17T00:12:32.636Z,87.05
2019-02-17T00:13:31.275Z,86.57
2019-02-17T00:14:29.838Z,86.63
2019-02-17T00:15:28.404Z,86.67
2019-02-17T00:16:27.025Z,86.72
2019-02-17T00:17:25.661Z,86.63
2019-02-17T00:18:24.239Z,86.82
2019-02-17T00:19:22.839Z,87.19
2019-02-17T00:20:21.467Z,87.67
2019-02-17T00:21:20.025Z,87.67
2019-02-17T00:22:18.586Z,88.05
2019-02-17T00:23:17.269Z,87.67
2019-02-17T00:24:15.961Z,87.57
2019-02-17T00:25:14.513Z,87.38
2019-02-17T00:26:13.063Z,87.76
2019-02-17T00:27:11.645Z,87.76
2019-02-17T00:28:10.153Z,88.43
2019-02-17T00:29:08.805Z,88.05
2019-02-17T00:30:07.503Z,88.71
2019-02-17T00:31:06.059Z,88.9
2019-02-17T00:32:04.618Z,88.81
2019-02-17T00:33:03.357Z,88.39
2019-02-17T00:34:02.044Z,88.53
2019-02-17T00:35:00.655Z,87.95
2019-02-17T00:35:59.172Z,87.48
2019-02-17T00:36:57.744Z,87.86
2019-02-17T00:37:56.312Z,87.57
2019-02-17T00:38:54.854Z,87.67
2019-02-17T00:39:53.483Z,87.95
2019-02-17T00:40:52.002Z,86.63
2019-02-17T00:41:50.569Z,86.63
2019-02-17T00:42:49.295Z,86.91
2019-02-17T00:43:48.014Z,87.01
2019-02-17T00:44:46.537Z,86.72
2019-02-17T00:45:45.130Z,87.19
2019-02-17T00:46:43.767Z,87.95
2019-02-17T00:47:42.380Z,86.72
2019-02-17T00:48:40.908Z,86.82
2019-02-17T00:49:39.501Z,87.19
2019-02-17T00:50:38.087Z,87.38
2019-02-17T00:51:36.677Z,87.76
2019-02-17T00:52:35.347Z,87.48
2019-02-17T00:53:34.404Z,88.15
2019-02-17T00:54:32.983Z,87.76
2019-02-17T00:55:31.582Z,87.67
2019-02-17T00:56:30.142Z,88.24
2019-02-17T00:57:28.728Z,88.05
2019-02-17T00:58:27.478Z,87.57
2019-02-17T00:59:26.065Z,87.67
2019-02-17T01:00:24.842Z,87.62
2019-02-17T01:01:23.721Z,87.91
2019-02-17T01:02:22.249Z,88.05
2019-02-17T01:03:20.772Z,87.86
2019-02-17T01:04:19.331Z,87.48
2019-02-17T01:05:17.893Z,87.91
2019-02-17T01:06:16.416Z,87.91
2019-02-17T01:07:14.977Z,88.15
2019-02-17T01:08:13.724Z,88.34
2019-02-17T01:09:12.258Z,87.86
2019-02-17T01:10:10.888Z,87.76
2019-02-17T01:11:09.542Z,87.57
2019-02-17T01:12:08.084Z,86.91
2019-02-17T01:13:06.623Z,86.63
2019-02-17T01:14:05.197Z,86.82
2019-02-17T01:15:03.834Z,86.63
2019-02-17T01:16:02.358Z,87.57
2019-02-17T01:17:00.889Z,87.67
2019-02-17T01:17:59.512Z,88.1
2019-02-17T01:18:58.087Z,87.91
2019-02-17T01:19:56.616Z,88.24
2019-02-17T01:20:55.378Z,87.86
2019-02-17T01:21:53.961Z,87.62
2019-02-17T01:22:52.536Z,88.01
2019-02-17T01:23:51.109Z,88.2
2019-02-17T01:24:49.728Z,88.57
2019-02-17T01:25:48.272Z,88.1
2019-02-17T01:26:46.810Z,88.76
2019-02-17T01:27:45.536Z,88.76
2019-02-17T01:28:44.112Z,88.71
2019-02-17T01:29:42.998Z,88.2
2019-02-17T01:30:41.627Z,88.2
2019-02-17T01:31:40.201Z,87.43
2019-02-17T01:32:38.806Z,87.57
2019-02-17T01:33:37.419Z,87.67
2019-02-17T01:34:36.198Z,87.76
2019-02-17T01:35:34.780Z,87.48
2019-02-17T01:36:33.424Z,88.29
2019-02-17T01:37:31.960Z,87.67
2019-02-17T01:38:30.649Z,87.1
2019-02-17T01:39:29.267Z,86.82
2019-02-17T01:40:27.877Z,86.53
2019-02-17T01:41:26.432Z,86.82
2019-02-17T01:42:25.132Z,86.82
2019-02-17T01:43:23.702Z,87.01
2019-02-17T01:44:22.265Z,86.91
2019-02-17T01:45:20.812Z,87.38
2019-02-17T01:46:19.359Z,87.76
2019-02-17T01:47:17.904Z,87.57
2019-02-17T01:48:16.460Z,87.53
2019-02-17T01:49:15.029Z,87.91
2019-02-17T01:50:13.637Z,88.57
2019-02-17T01:51:12.200Z,88.57
2019-02-17T01:52:10.858Z,88.57
2019-02-17T01:53:09.453Z,88.2
2019-02-17T01:54:08.147Z,87.57
2019-02-17T01:55:06.690Z,87.82
2019-02-17T01:56:05.264Z,88.29
2019-02-17T01:57:03.997Z,88.29
2019-02-17T01:58:02.614Z,87.91
2019-02-17T01:59:01.192Z,88.01
2019-02-17T01:59:59.808Z,87.91
2019-02-17T02:00:58.379Z,87.91
2019-02-17T02:01:57.087Z,87.91
2019-02-17T02:02:55.655Z,87.91
2019-02-17T02:03:54.202Z,87.91
2019-02-17T02:04:52.755Z,87.91
2019-02-17T02:05:51.460Z,87.62
2019-02-17T02:06:50.152Z,88.01
2019-02-17T02:07:48.720Z,87.43
2019-02-17T02:08:47.306Z,87.82
2019-02-17T02:09:45.856Z,88.2
2019-02-17T02:10:44.406Z,88.2
2019-02-17T02:11:43.021Z,87.43
2019-02-17T02:12:41.823Z,87.67
2019-02-17T02:13:40.352Z,86.82
2019-02-17T02:14:38.990Z,86.82
2019-02-17T02:15:37.597Z,87.19
2019-02-17T02:16:36.149Z,86.72
2019-02-17T02:17:34.676Z,86.91
2019-02-17T02:18:33.221Z,86.53
2019-02-17T02:19:31.824Z,86.53
2019-02-17T02:20:30.388Z,86.34
2019-02-17T02:21:28.935Z,86.63
2019-02-17T02:22:27.530Z,86.43
2019-02-17T02:23:26.128Z,86.05
2019-02-17T02:24:24.680Z,86.15
2019-02-17T02:25:23.278Z,86.24
2019-02-17T02:26:21.971Z,86.43
2019-02-17T02:27:20.531Z,86.15
2019-02-17T02:28:19.346Z,86.58
2019-02-17T02:29:17.944Z,86.96
2019-02-17T02:30:16.623Z,86.87
2019-02-17T02:31:15.111Z,86.87
2019-02-17T02:32:14.163Z,86.58
2019-02-17T02:33:12.730Z,86.3
2019-02-17T02:34:11.411Z,86.58
2019-02-17T02:35:10.554Z,86.24
2019-02-17T02:36:09.181Z,86.01
2019-02-17T02:37:07.868Z,86.87
2019-02-17T02:38:06.448Z,86.87
2019-02-17T02:39:05.002Z,85.82
2019-02-17T02:40:03.698Z,86.58
2019-02-17T02:41:02.296Z,86.49
2019-02-17T02:42:00.840Z,86.39
2019-02-17T02:42:59.410Z,86.11
2019-02-17T02:43:57.961Z,86.77
2019-02-17T02:44:56.518Z,86.3
2019-02-17T02:45:55.317Z,86.96
2019-02-17T02:46:54.020Z,86.96
2019-02-17T02:47:52.569Z,86.49
2019-02-17T02:48:51.276Z,87.15
2019-02-17T02:49:49.926Z,86.87
2019-02-17T02:50:48.526Z,86.58
2019-02-17T02:51:47.057Z,86.77
2019-02-17T02:52:45.703Z,87.05
2019-02-17T02:53:44.285Z,86.87
2019-02-17T02:54:42.936Z,87.62
2019-02-17T02:55:41.713Z,87.68
2019-02-17T02:56:40.256Z,87.43
2019-02-17T02:57:38.839Z,87.62
2019-02-17T02:58:37.475Z,87.82
2019-02-17T02:59:36.114Z,87.82
2019-02-17T03:00:34.669Z,87.53
2019-02-17T03:01:33.417Z,87.87
2019-02-17T03:02:31.991Z,87.62
2019-02-17T03:03:30.543Z,87.34
2019-02-17T03:04:29.197Z,87.53
2019-02-17T03:05:27.864Z,87.91
2019-02-17T03:06:26.401Z,87.43
2019-02-17T03:07:24.962Z,87.72
2019-02-17T03:08:23.859Z,87.72
2019-02-17T03:09:22.427Z,87.43
2019-02-17T03:10:20.960Z,86.87
2019-02-17T03:11:19.802Z,86.96
2019-02-17T03:12:18.363Z,87.62
2019-02-17T03:13:17.037Z,87.15
2019-02-17T03:14:15.606Z,86.91
2019-02-17T03:15:14.210Z,87.24
2019-02-17T03:16:12.783Z,87.34
2019-02-17T03:17:11.368Z,87.53
2019-02-17T03:18:09.998Z,86.58
2019-02-17T03:19:08.532Z,86.96
2019-02-17T03:20:07.079Z,86.58
2019-02-17T03:22:41.132Z,86.68
2019-02-17T03:23:39.718Z,86.91
2019-02-17T03:24:38.262Z,86.82
2019-02-17T03:25:37.205Z,87.68
2019-02-17T03:26:35.879Z,87.58
2019-02-17T03:27:34.399Z,88.06
2019-02-17T03:28:32.941Z,88.15
2019-02-17T03:29:31.593Z,88.15
2019-02-17T03:30:30.133Z,88.24
2019-02-17T03:31:28.706Z,87.87
2019-02-17T03:32:27.249Z,88.24
2019-02-17T03:33:25.890Z,88.15
2019-02-17T03:34:24.559Z,87.96
2019-02-17T03:35:23.188Z,87.49
2019-02-17T03:36:21.911Z,87.34
2019-02-17T03:37:20.427Z,87.49
2019-02-17T03:38:19.024Z,87.49
2019-02-17T03:39:17.675Z,87.58
2019-02-17T03:40:16.278Z,87.68
2019-02-17T03:41:14.828Z,88.15
2019-02-17T03:42:13.401Z,87.96
2019-02-17T03:43:11.924Z,87.96
2019-02-17T03:44:10.500Z,87.96
2019-02-17T03:45:09.289Z,87.82
2019-02-17T03:46:07.964Z,87.77
2019-02-17T03:47:06.501Z,87.77
2019-02-17T03:48:05.158Z,88.24
2019-02-17T03:49:03.840Z,88.43
2019-02-17T03:50:02.438Z,88.53
2019-02-17T03:51:00.934Z,88.43
2019-02-17T03:51:59.496Z,88.01
2019-02-17T03:52:58.074Z,87.68
2019-02-17T03:53:56.605Z,87.53
2019-02-17T03:54:55.186Z,87.43
2019-02-17T03:55:53.752Z,87.82
2019-02-17T03:56:52.327Z,87.39
2019-02-17T03:57:51.033Z,87.96
2019-02-17T03:58:49.858Z,88.76
2019-02-17T03:59:48.412Z,88.01
2019-02-17T04:00:46.990Z,87.72
2019-02-17T04:01:45.555Z,87.53
2019-02-17T04:02:44.120Z,87.62
2019-02-17T04:03:42.773Z,87.72
2019-02-17T04:04:41.391Z,87.62
2019-02-17T04:05:39.951Z,87.53
2019-02-17T04:06:38.515Z,87.96
2019-02-17T04:07:37.192Z,88.72
2019-02-17T04:08:35.991Z,88.57
2019-02-17T04:09:34.513Z,88.34
2019-02-17T04:10:33.054Z,88.53
2019-02-17T04:11:31.845Z,88.62
2019-02-17T04:12:30.453Z,88.34
2019-02-17T04:13:29.039Z,88.72
2019-02-17T04:14:27.797Z,88.43
2019-02-17T04:15:26.389Z,88.91
2019-02-17T04:16:25.129Z,89
2019-02-17T04:17:23.942Z,89.48
2019-02-17T04:18:22.748Z,89.2
2019-02-17T04:19:21.332Z,88.72
2019-02-17T04:20:19.950Z,88.81
2019-02-17T04:21:18.600Z,88.72
2019-02-17T04:22:17.216Z,89
2019-02-17T04:23:15.891Z,89.2
2019-02-17T04:24:14.465Z,89
2019-02-17T04:25:13.135Z,89
2019-02-17T04:26:11.864Z,89.1
2019-02-17T04:27:10.406Z,89
2019-02-17T04:28:09.031Z,88.48
2019-02-17T04:29:10.203Z,88.48
2019-02-17T04:30:06.403Z,88.43
2019-02-17T04:31:04.962Z,88.53
2019-02-17T04:32:04.088Z,89.2
2019-02-17T04:33:02.636Z,88.53
2019-02-17T04:34:01.319Z,88.57
2019-02-17T04:34:59.971Z,88.53
2019-02-17T04:35:58.573Z,88.43
2019-02-17T04:36:57.039Z,88.34
2019-02-17T04:37:55.616Z,88.53
2019-02-17T04:38:54.222Z,88.62
2019-02-17T04:39:52.758Z,89.2
2019-02-17T04:40:51.324Z,88.53
2019-02-17T04:41:49.897Z,89.1
2019-02-17T04:42:48.471Z,88.91
2019-02-17T04:43:47.263Z,88.91
2019-02-17T04:44:45.940Z,88.34
2019-02-17T04:45:44.517Z,87.96
2019-02-17T04:46:43.199Z,87.96
2019-02-17T04:47:41.864Z,87.77
2019-02-17T04:48:40.407Z,88.34
2019-02-17T04:49:38.978Z,88.15
2019-02-17T04:50:37.652Z,87.96
2019-02-17T04:51:36.256Z,88.43
2019-02-17T04:52:34.831Z,88.43
2019-02-17T04:53:33.407Z,88.34
2019-02-17T04:54:32.184Z,87.96
2019-02-17T04:55:30.729Z,88.06
2019-02-17T04:56:29.428Z,87.87
2019-02-17T04:57:28.014Z,87.68
2019-02-17T04:58:26.594Z,86.96
2019-02-17T04:59:25.118Z,86.63
2019-02-17T05:00:23.748Z,86.68
2019-02-17T05:01:22.300Z,86.87
2019-02-17T05:02:20.872Z,86.68
2019-02-17T05:03:19.591Z,86.82
2019-02-17T05:04:18.123Z,87.11
2019-02-17T05:05:16.675Z,87.68
2019-02-17T05:06:15.436Z,87.49
2019-02-17T05:07:14.203Z,87.53
2019-02-17T05:08:12.722Z,86.54
2019-02-17T05:09:11.299Z,87.01
2019-02-17T05:10:09.992Z,87.11
2019-02-17T05:11:08.549Z,87.2
2019-02-17T05:12:07.138Z,86.91
2019-02-17T05:13:05.731Z,86.54
2019-02-17T05:14:04.277Z,86.91
2019-02-17T05:15:02.895Z,87.11
2019-02-17T05:16:01.523Z,87.11
2019-02-17T05:17:00.169Z,87.68
2019-02-17T05:17:58.757Z,87.49
2019-02-17T05:18:57.313Z,87.68
2019-02-17T05:19:56.112Z,87.49
2019-02-17T05:20:55.771Z,87.3
2019-02-17T05:21:54.357Z,87.49
2019-02-17T05:22:53.100Z,87.68
2019-02-17T05:23:51.808Z,87.96
2019-02-17T05:24:50.328Z,88.1
2019-02-17T05:25:48.862Z,88.29
2019-02-17T05:26:47.470Z,88.39
2019-02-17T05:27:46.039Z,88.43
2019-02-17T05:28:44.886Z,88.72
2019-02-17T05:29:43.601Z,87.92
2019-02-17T05:30:52.044Z,88.15
2019-02-17T05:31:40.744Z,87.87
2019-02-17T05:32:40.177Z,87.3
2019-02-17T05:33:38.725Z,87.77
2019-02-17T05:34:37.385Z,87.63
2019-02-17T05:35:36.040Z,88.1
2019-02-17T05:36:34.636Z,87.92
2019-02-17T05:37:33.310Z,88.01
2019-02-17T05:38:32.012Z,87.92
2019-02-17T05:39:30.562Z,87.92
2019-02-17T05:40:29.370Z,88.58
2019-02-17T05:41:28.001Z,88.58
2019-02-17T05:42:26.607Z,88.68
2019-02-17T05:43:25.163Z,88.01
2019-02-17T05:44:23.719Z,87.82
2019-02-17T05:45:22.263Z,88.29
2019-02-17T05:46:20.867Z,88.68
2019-02-17T05:47:19.716Z,88.58
2019-02-17T05:48:18.300Z,88.87
2019-02-17T05:49:16.867Z,89.25
2019-02-17T05:50:15.569Z,89.06
2019-02-17T05:51:14.354Z,89.06
2019-02-17T05:52:12.932Z,89.43
2019-02-17T05:53:11.477Z,89.43
2019-02-17T05:54:10.046Z,90.1
2019-02-17T05:55:08.599Z,89.91
2019-02-17T05:56:07.129Z,89.53
2019-02-17T05:57:05.830Z,89.43
2019-02-17T05:58:04.366Z,89.06
2019-02-17T05:59:02.969Z,88.96
2019-02-17T06:00:01.790Z,88.48
2019-02-17T06:01:03.535Z,88.77
2019-02-17T06:01:58.970Z,88.87
2019-02-17T06:02:57.541Z,88.77
2019-02-17T06:03:56.378Z,88.1
2019-02-17T06:04:54.950Z,88.58
2019-02-17T06:05:53.473Z,88.96
2019-02-17T06:06:52.144Z,88.96
2019-02-17T06:07:50.733Z,88.96
2019-02-17T06:08:49.462Z,88.48
2019-02-17T06:09:48.174Z,87.92
2019-02-17T06:10:46.704Z,88.68
2019-02-17T06:11:45.522Z,88.48
2019-02-17T06:12:44.096Z,88.68
2019-02-17T06:13:42.684Z,88.58
2019-02-17T06:14:41.503Z,88.2
2019-02-17T06:15:40.223Z,88.48
2019-02-17T06:16:38.796Z,88.39
2019-02-17T06:17:37.445Z,88.39
2019-02-17T06:18:36.061Z,88.39
2019-02-17T06:19:34.805Z,88.48
2019-02-17T06:20:33.611Z,88.48
2019-02-17T06:21:32.399Z,88.01
2019-02-17T06:22:31.023Z,87.35
2019-02-17T06:23:30.533Z,87.25
2019-02-17T06:24:29.236Z,86.63
2019-02-17T06:25:27.906Z,86.63
2019-02-17T06:26:26.547Z,86.63
2019-02-17T06:27:25.111Z,86.82
2019-02-17T06:28:23.813Z,86.82
2019-02-17T06:29:22.407Z,86.72
2019-02-17T06:30:21.377Z,86.25
2019-02-17T06:31:20.057Z,86.07
2019-02-17T06:32:18.694Z,86.16
2019-02-17T06:33:17.375Z,86.44
2019-02-17T06:34:16.027Z,85.87
2019-02-17T06:35:14.759Z,86.07
2019-02-17T06:36:13.509Z,86.07
2019-02-17T06:37:12.172Z,86.44
2019-02-17T06:38:10.805Z,86.63
2019-02-17T06:39:09.948Z,86.72
2019-02-17T06:40:09.441Z,87.11
2019-02-17T06:41:08.108Z,86.63
2019-02-17T06:42:06.693Z,86.63
2019-02-17T06:43:05.502Z,86.63
2019-02-17T06:44:04.169Z,86.16
2019-02-17T06:45:02.840Z,86.44
2019-02-17T06:46:01.613Z,86.82
2019-02-17T06:47:00.389Z,86.72
2019-02-17T06:47:59.243Z,86.82
2019-02-17T06:48:57.987Z,86.82
2019-02-17T06:49:56.532Z,86.91
2019-02-17T06:50:55.178Z,86.54
2019-02-17T06:51:53.940Z,86.82
2019-02-17T06:52:52.479Z,86.54
2019-02-17T06:53:51.041Z,86.25
2019-02-17T06:54:49.597Z,86.54
2019-02-17T06:55:48.288Z,85.68
2019-02-17T06:56:46.848Z,85.97
2019-02-17T06:57:45.548Z,85.97
2019-02-17T06:58:44.106Z,85.78
2019-02-17T06:59:42.652Z,86.07
2019-02-17T07:00:41.309Z,86.44
2019-02-17T07:01:40.003Z,86.16
2019-02-17T07:02:38.601Z,86.44
2019-02-17T07:03:37.168Z,86.72
2019-02-17T07:04:35.848Z,86.16
2019-02-17T07:05:34.435Z,86.07
2019-02-17T07:06:33.008Z,85.97
2019-02-17T07:07:33.631Z,86.16
2019-02-17T07:08:32.201Z,86.82
2019-02-17T07:09:30.859Z,86.63
2019-02-17T07:10:29.663Z,86.82
2019-02-17T07:11:28.234Z,86.72
2019-02-17T07:12:26.863Z,86.72
2019-02-17T07:13:25.425Z,86.44
2019-02-17T07:14:24.017Z,86.63
2019-02-17T07:15:22.589Z,85.97
2019-02-17T07:16:21.161Z,85.87
2019-02-17T07:17:19.850Z,86.54
2019-02-17T07:18:18.454Z,86.63
2019-02-17T07:19:17.005Z,86.44
2019-02-17T07:20:15.841Z,86.72
2019-02-17T07:21:14.436Z,86.54
2019-02-17T07:24:53.081Z,86.11
2019-02-17T07:25:51.830Z,86.3
2019-02-17T07:26:50.555Z,85.82
2019-02-17T07:27:49.128Z,85.82
2019-02-17T07:28:48.045Z,86.01
2019-02-17T07:29:46.580Z,85.16
2019-02-17T07:30:45.227Z,85.82
2019-02-17T07:31:43.784Z,85.16
2019-02-17T07:32:42.390Z,84.87
2019-02-17T07:33:40.908Z,84.97
2019-02-17T07:34:39.670Z,84.87
2019-02-17T07:35:38.260Z,85.25
2019-02-17T07:36:36.865Z,85.25
2019-02-17T07:37:35.557Z,85.44
2019-02-17T07:38:34.166Z,84.78
2019-02-17T07:39:32.802Z,85.06
2019-02-17T07:40:31.513Z,84.87
2019-02-17T07:41:30.146Z,85.16
2019-02-17T07:42:28.739Z,85.63
2019-02-17T07:43:27.326Z,85.35
2019-02-17T07:44:25.982Z,85.44
2019-02-17T07:45:24.966Z,85.63
2019-02-17T07:46:23.558Z,85.82
2019-02-17T07:49:47.458Z,85.63
2019-02-17T07:50:46.620Z,85.91
2019-02-17T07:51:45.225Z,86.01
2019-02-17T07:52:44.277Z,85.63
2019-02-17T07:53:44.940Z,85.72
2019-02-17T07:54:43.751Z,85.63
2019-02-17T07:55:42.521Z,85.06
2019-02-17T07:56:41.817Z,84.78
2019-02-17T07:57:40.442Z,84.63
2019-02-17T07:58:39.088Z,84.01
2019-02-17T07:59:37.897Z,83.49
2019-02-17T08:00:36.681Z,83.49
2019-02-17T08:01:44.565Z,83.49
2019-02-17T08:02:33.836Z,84.16
2019-02-17T08:03:32.498Z,83.64
2019-02-17T08:04:31.276Z,84.01
2019-02-17T08:05:30.043Z,83.39
2019-02-17T08:06:28.716Z,82.82
2019-02-17T08:07:27.269Z,82.07
2019-02-17T08:08:26.007Z,82.45
2019-02-17T08:09:24.549Z,82.07
2019-02-17T08:10:23.374Z,82.82
2019-02-17T08:11:22.112Z,82.54
2019-02-17T08:12:20.692Z,82.07
2019-02-17T08:13:19.393Z,81.49
2019-02-17T08:14:17.989Z,81.02
2019-02-17T08:15:16.567Z,81.3
2019-02-17T08:16:15.102Z,81.49
2019-02-17T08:17:13.829Z,81.4
2019-02-17T08:18:12.402Z,81.49
2019-02-17T08:19:11.060Z,81.12
2019-02-17T08:20:09.757Z,81.12
2019-02-17T08:21:08.302Z,80.77
2019-02-17T08:22:06.971Z,80.74
2019-02-17T08:23:05.687Z,81.06
2019-02-17T08:24:04.247Z,81.06
2019-02-17T08:25:02.793Z,80.87
2019-02-17T08:26:01.617Z,81.16
2019-02-17T08:27:00.159Z,80.58
2019-02-17T08:27:58.723Z,80.68
2019-02-17T08:28:57.422Z,80.49
2019-02-17T08:29:56.509Z,80.77
2019-02-17T08:30:55.153Z,80.21
2019-02-17T08:31:56.037Z,80.3
2019-02-17T08:32:52.324Z,80.11
2019-02-17T08:33:51.096Z,80.3
2019-02-17T08:34:49.681Z,79.92
2019-02-17T08:35:48.351Z,79.83
2019-02-17T08:36:46.925Z,80.11
2019-02-17T08:37:45.533Z,79.44
2019-02-17T08:38:44.116Z,79.06
2019-02-17T08:39:43.058Z,79.44
2019-02-17T08:40:47.322Z,78.97
2019-02-17T08:41:46.196Z,79.2
2019-02-17T08:42:44.884Z,78.91
2019-02-17T08:43:43.771Z,78.63
2019-02-17T08:44:42.380Z,78.53
2019-02-17T08:45:41.024Z,78.44
2019-02-17T08:46:39.770Z,78.34
2019-02-17T08:47:38.370Z,77.97
2019-02-17T08:48:36.939Z,78.34
2019-02-17T08:49:35.807Z,78.34
2019-02-17T08:50:34.332Z,77.87
2019-02-17T08:51:32.937Z,77.49
2019-02-17T08:52:31.706Z,77.77
2019-02-17T08:53:30.251Z,77.3
2019-02-17T08:54:28.885Z,76.73
2019-02-17T08:55:27.391Z,77.11
2019-02-17T08:56:26.091Z,76.92
2019-02-17T08:57:24.695Z,76.54
2019-02-17T08:58:23.368Z,76.82
2019-02-17T08:59:21.951Z,77.11
2019-02-17T09:00:21.339Z,76.63
2019-02-17T09:01:20.083Z,77.11
2019-02-17T09:02:18.641Z,76.44
2019-02-17T09:03:17.352Z,76.63
2019-02-17T09:04:16.032Z,75.96
2019-02-17T09:05:14.731Z,76.25
2019-02-17T09:06:13.418Z,76.16
2019-02-17T09:07:12.339Z,76.57
2019-02-17T09:08:10.664Z,76.57
2019-02-17T09:09:09.253Z,76.48
2019-02-17T09:10:07.937Z,76.48
2019-02-17T09:11:06.495Z,76.48
2019-02-17T09:12:05.076Z,77.62
2019-02-17T09:13:03.679Z,77.81
2019-02-17T09:14:02.237Z,77.81
2019-02-17T09:15:00.761Z,77.91
2019-02-17T09:15:59.317Z,77.72
2019-02-17T09:16:58.206Z,77.91
2019-02-17T09:17:56.790Z,77.53
2019-02-17T09:18:55.574Z,77.62
2019-02-17T09:19:54.282Z,77.24
2019-02-17T09:20:52.822Z,77.62
2019-02-17T09:21:51.874Z,77.62
2019-02-17T09:22:50.612Z,77.81
2019-02-17T09:23:49.198Z,77.81
2019-02-17T09:24:48.002Z,77.62
2019-02-17T09:25:46.452Z,78.29
2019-02-17T09:26:45.034Z,77.53
2019-02-17T09:27:44.001Z,77.24
2019-02-17T09:28:42.579Z,77.15
2019-02-17T09:29:41.238Z,77.05
2019-02-17T09:30:39.924Z,76.96
2019-02-17T09:31:38.444Z,76.29
2019-02-17T09:32:36.987Z,76.01
2019-02-17T09:33:35.614Z,76.1
2019-02-17T09:34:34.234Z,75.95
2019-02-17T09:35:32.820Z,75.09
2019-02-17T09:36:31.566Z,75.19
2019-02-17T09:37:30.405Z,75.38
2019-02-17T09:38:29.012Z,74.99
2019-02-17T09:39:27.635Z,74.99
2019-02-17T09:40:26.235Z,75.38
2019-02-17T09:41:24.816Z,75.09
2019-02-17T09:42:23.628Z,76.23
2019-02-17T09:43:22.254Z,75.09
2019-02-17T09:44:20.863Z,74.24
2019-02-17T09:47:01.203Z,72.62
2019-02-17T09:47:59.705Z,72.9
2019-02-17T09:48:58.247Z,73.85
2019-02-17T09:49:56.851Z,72.9
2019-02-17T09:50:55.623Z,72.14
2019-02-17T09:51:54.214Z,72.62
2019-02-17T09:52:52.834Z,72.52
2019-02-17T09:55:15.801Z,72.24
2019-02-17T09:56:14.618Z,72.24
2019-02-17T09:57:13.181Z,72.42
2019-02-17T09:58:11.948Z,72.24
2019-02-17T09:59:11.316Z,71.67
2019-02-17T10:00:10.301Z,71.76
2019-02-17T10:24:04.515Z,70.02
2019-02-17T10:25:03.815Z,70.59
2019-02-17T10:26:02.653Z,69.54
2019-02-17T10:27:01.268Z,69.35
2019-02-17T10:28:00.007Z,70.69
2019-02-17T10:28:58.678Z,71.17
2019-02-17T10:29:57.576Z,70.59
2019-02-17T10:30:56.388Z,68.5
2019-02-17T10:31:54.972Z,68.78
2019-02-17T10:32:53.893Z,69.35
2019-02-17T10:33:52.616Z,69.45
2019-02-17T10:34:51.437Z,69.35
2019-02-17T10:35:50.107Z,70.4
2019-02-17T10:36:49.469Z,70.21
2019-02-17T10:37:48.095Z,70.4
2019-02-17T10:38:46.686Z,71.45
2019-02-17T10:41:26.900Z,68.59
2019-02-17T10:42:26.123Z,68.98
2019-02-17T10:43:24.743Z,69.64
2019-02-17T10:44:23.749Z,68.5
2019-02-17T10:45:22.362Z,68.78
2019-02-17T10:46:20.935Z,70.06
2019-02-17T10:47:20.184Z,68.82
2019-02-17T10:48:18.944Z,69.29
2019-02-17T10:49:19.321Z,68.82
2019-02-17T10:50:16.476Z,69.01
2019-02-17T10:51:14.828Z,68.53
2019-02-17T10:52:13.549Z,68.63
2019-02-17T10:53:12.245Z,69.58
2019-02-17T10:54:11.068Z,69.2
2019-02-17T10:57:50.333Z,67.1
2019-02-17T11:00:30.915Z,66.82
2019-02-17T11:01:29.529Z,68.15
2019-02-17T11:02:28.162Z,68.72
2019-02-17T11:28:45.990Z,67.58
2019-02-17T11:31:26.242Z,67.9
2019-02-17T11:32:24.868Z,67.71
2019-02-17T11:33:23.454Z,67.52
2019-02-17T11:34:22.054Z,67.71
2019-02-17T11:37:02.232Z,67.23
2019-02-17T11:39:18.250Z,68.09
2019-02-17T11:40:16.788Z,67.8
2019-02-17T11:41:15.456Z,67.14
2019-02-17T11:42:14.099Z,67.71
2019-02-17T11:44:37.007Z,68.85
2019-02-17T11:45:35.955Z,69.14
2019-02-17T11:46:34.555Z,68.76
2019-02-17T11:47:33.230Z,69.04
2019-02-17T11:48:31.943Z,68.76
2019-02-17T11:49:30.498Z,68.38
2019-02-17T11:50:29.050Z,68.95
2019-02-17T11:51:27.870Z,70.09
2019-02-17T11:52:26.460Z,70.09
2019-02-17T11:53:25.048Z,68.57
2019-02-17T11:54:23.569Z,68.85
2019-02-17T11:55:22.811Z,69.04
2019-02-17T11:56:20.742Z,68.66
2019-02-17T11:57:19.265Z,68.66
2019-02-17T11:58:17.847Z,68.85
2019-02-17T11:59:16.496Z,69.33
2019-02-17T12:00:15.235Z,68.95
2019-02-17T12:01:14.049Z,70.57
2019-02-17T12:02:12.544Z,69.62
2019-02-17T12:03:11.115Z,68.66
2019-02-17T12:04:09.761Z,68.95
2019-02-17T12:07:48.843Z,69.23
2019-02-17T12:08:47.591Z,70.38
2019-02-17T12:09:46.313Z,69.84
2019-02-17T12:10:44.920Z,69.65
2019-02-17T12:15:48.251Z,67.65
2019-02-17T12:19:53.824Z,68.88
2019-02-17T12:21:54.897Z,68.7
2019-02-17T12:22:53.910Z,68.88
2019-02-17T12:23:52.616Z,68.88
2019-02-17T12:24:51.185Z,68.41
2019-02-17T12:25:49.952Z,68.7
2019-02-17T12:26:49.758Z,69.08
2019-02-17T12:27:47.105Z,68.88
2019-02-17T12:28:45.873Z,68.6
2019-02-17T12:29:44.750Z,67.93
2019-02-17T12:30:43.252Z,67.46
2019-02-17T12:31:42.010Z,67.46
2019-02-17T12:34:08.457Z,68.88
2019-02-17T12:35:07.022Z,68.03
2019-02-17T12:37:47.525Z,68.44
2019-02-17T12:38:45.944Z,67.46
2019-02-17T12:39:44.675Z,68.6
2019-02-17T12:40:43.239Z,68.88
2019-02-17T12:41:41.859Z,67.46
2019-02-17T12:42:40.406Z,67.65
2019-02-17T12:43:39.872Z,67.27
2019-02-17T12:44:38.473Z,67.74
2019-02-17T12:45:37.039Z,68.79
2019-02-17T12:46:35.820Z,68.16
2019-02-17T12:47:34.406Z,68.12
2019-02-17T12:48:32.935Z,68.7
2019-02-17T12:49:33.664Z,68.03
2019-02-17T12:52:57.158Z,68.12
2019-02-17T12:53:55.760Z,67.65
2019-02-17T12:54:54.472Z,67.46
2019-02-17T12:55:53.105Z,68.06
2019-02-17T12:56:51.762Z,67.68
2019-02-17T12:57:50.343Z,67.58
2019-02-17T12:58:49.175Z,66.72
2019-02-17T12:59:47.788Z,67.21
2019-02-17T13:00:46.455Z,67.49
2019-02-17T13:01:45.492Z,66.35
2019-02-17T13:02:43.922Z,67.4
2019-02-17T13:05:24.163Z,65.67
2019-02-17T13:06:22.759Z,64.91
2019-02-17T13:10:27.031Z,65.96
2019-02-17T13:13:07.492Z,66.25
2019-02-17T13:14:06.111Z,65.96
2019-02-17T13:15:04.642Z,65.58
2019-02-17T13:16:03.258Z,65.87
2019-02-17T13:17:01.850Z,65.67
2019-02-17T13:21:22.919Z,64.34
2019-02-17T13:22:22.032Z,64.15
2019-02-17T13:23:21.391Z,64.47
2019-02-17T13:24:20.033Z,64.91
2019-02-17T13:25:18.663Z,65.48
2019-02-17T13:26:18.435Z,64.62
2019-02-17T13:28:58.511Z,64.53
2019-02-17T13:29:57.435Z,64.53
2019-02-17T13:30:56.040Z,64.94
2019-02-17T13:31:54.830Z,64.65
2019-02-17T13:32:53.401Z,63.7
2019-02-17T13:33:52.380Z,63.13
2019-02-17T13:34:51.067Z,63.32
2019-02-17T13:35:49.655Z,63.8
2019-02-17T13:36:48.540Z,62.75
2019-02-17T13:37:47.158Z,62.65
2019-02-17T13:38:46.004Z,62.27
2019-02-17T13:39:44.937Z,62.27
2019-02-17T13:40:43.736Z,62.65
2019-02-17T13:41:42.392Z,62.84
2019-02-17T13:42:41.131Z,63.13
2019-02-17T13:47:19.285Z,62.75
2019-02-17T13:48:18.032Z,62.75
2019-02-17T13:49:16.664Z,63.23
2019-02-17T13:50:15.402Z,63.6
2019-02-17T13:51:14.115Z,62.27
2019-02-17T13:52:12.961Z,62.08
2019-02-17T13:53:12.237Z,62.37
2019-02-17T13:54:10.282Z,61.89
2019-02-17T13:55:08.917Z,62.27
2019-02-17T13:56:09.644Z,62.65
2019-02-17T13:57:08.558Z,62.55
2019-02-17T13:58:07.918Z,61.89
2019-02-17T13:59:06.931Z,62.18
2019-02-17T14:00:06.355Z,61.79
2019-02-17T14:01:05.058Z,61.79
2019-02-17T14:02:03.770Z,61.41
2019-02-17T14:03:04.605Z,61.13
2019-02-17T14:04:03.948Z,60.55
2019-02-17T14:05:03.824Z,60.27
2019-02-17T14:06:04.409Z,61.13
2019-02-17T14:07:05.225Z,60.64
2019-02-17T14:08:09.596Z,60.55
2019-02-17T14:11:47.432Z,60.74
2019-02-17T14:12:49.772Z,60.27
2019-02-17T14:13:52.351Z,60.74
2019-02-17T14:14:52.932Z,61.22
2019-02-17T14:15:51.783Z,61.41
2019-02-17T14:16:50.551Z,60.77
2019-02-17T14:28:21.870Z,59.53
2019-02-17T14:29:22.103Z,60.01
2019-02-17T14:30:23.342Z,60.3
2019-02-17T14:31:21.978Z,59.81
2019-02-17T14:32:21.417Z,59.15
2019-02-17T14:34:19.556Z,59.05